sensor_id;sensor_type;location;lat;lon;timestamp;P1;durP1;ratioP1;P2;durP2;ratioP2
48765;SDS011;65794;51.836;5.002;2024-02-04T00:02:06;23.30;;;7.38;;
48765;SDS011;65794;51.836;5.002;2024-02-04T00:04:34;32.30;;;7.72;;
48765;SDS011;65794;51.836;5.002;2024-02-04T00:07:01;29.52;;;7.93;;
48765;SDS011;65794;51.836;5.002;2024-02-04T00:09:28;28.08;;;7.70;;
48765;SDS011;65794;51.836;5.002;2024-02-04T00:11:56;36.13;;;8.77;;
48765;SDS011;65794;51.836;5.002;2024-02-04T00:14:24;43.95;;;9.73;;
48765;SDS011;65794;51.836;5.002;2024-02-04T00:16:51;42.30;;;10.25;;
48765;SDS011;65794;51.836;5.002;2024-02-04T00:19:18;35.00;;;8.85;;
48765;SDS011;65794;51.836;5.002;2024-02-04T00:21:44;46.00;;;8.05;;
48765;SDS011;65794;51.836;5.002;2024-02-04T00:24:11;34.90;;;8.30;;
48765;SDS011;65794;51.836;5.002;2024-02-04T00:26:38;49.25;;;9.20;;
48765;SDS011;65794;51.836;5.002;2024-02-04T00:29:05;44.70;;;10.00;;
48765;SDS011;65794;51.836;5.002;2024-02-04T00:31:31;47.75;;;10.32;;
48765;SDS011;65794;51.836;5.002;2024-02-04T00:33:58;34.15;;;9.45;;
48765;SDS011;65794;51.836;5.002;2024-02-04T00:36:25;41.78;;;10.88;;
48765;SDS011;65794;51.836;5.002;2024-02-04T00:38:52;42.88;;;10.43;;
48765;SDS011;65794;51.836;5.002;2024-02-04T00:41:18;36.63;;;9.35;;
48765;SDS011;65794;51.836;5.002;2024-02-04T00:43:45;47.58;;;10.18;;
48765;SDS011;65794;51.836;5.002;2024-02-04T00:46:12;47.53;;;10.13;;
48765;SDS011;65794;51.836;5.002;2024-02-04T00:48:39;40.65;;;9.60;;
48765;SDS011;65794;51.836;5.002;2024-02-04T00:51:09;40.20;;;9.70;;
48765;SDS011;65794;51.836;5.002;2024-02-04T00:53:36;43.47;;;11.55;;
48765;SDS011;65794;51.836;5.002;2024-02-04T00:56:03;44.97;;;11.80;;
48765;SDS011;65794;51.836;5.002;2024-02-04T00:58:30;36.65;;;10.35;;
48765;SDS011;65794;51.836;5.002;2024-02-04T01:00:57;40.08;;;9.60;;
48765;SDS011;65794;51.836;5.002;2024-02-04T01:03:24;27.75;;;8.80;;
48765;SDS011;65794;51.836;5.002;2024-02-04T01:05:50;49.13;;;10.65;;
48765;SDS011;65794;51.836;5.002;2024-02-04T01:08:17;39.67;;;10.77;;
48765;SDS011;65794;51.836;5.002;2024-02-04T01:10:44;46.40;;;11.05;;
48765;SDS011;65794;51.836;5.002;2024-02-04T01:13:11;41.97;;;10.55;;
48765;SDS011;65794;51.836;5.002;2024-02-04T01:15:38;36.00;;;10.18;;
48765;SDS011;65794;51.836;5.002;2024-02-04T01:18:05;39.40;;;10.75;;
48765;SDS011;65794;51.836;5.002;2024-02-04T01:20:33;36.78;;;10.65;;
48765;SDS011;65794;51.836;5.002;2024-02-04T01:23:00;37.50;;;10.55;;
48765;SDS011;65794;51.836;5.002;2024-02-04T01:25:27;48.47;;;10.90;;
48765;SDS011;65794;51.836;5.002;2024-02-04T01:27:53;40.70;;;10.50;;
48765;SDS011;65794;51.836;5.002;2024-02-04T01:30:21;45.58;;;10.10;;
48765;SDS011;65794;51.836;5.002;2024-02-04T01:32:48;32.40;;;9.73;;
48765;SDS011;65794;51.836;5.002;2024-02-04T01:35:15;35.13;;;10.02;;
48765;SDS011;65794;51.836;5.002;2024-02-04T01:37:42;32.58;;;9.80;;
48765;SDS011;65794;51.836;5.002;2024-02-04T01:40:10;35.05;;;10.55;;
48765;SDS011;65794;51.836;5.002;2024-02-04T01:42:37;52.10;;;11.95;;
48765;SDS011;65794;51.836;5.002;2024-02-04T01:45:04;46.50;;;11.05;;
48765;SDS011;65794;51.836;5.002;2024-02-04T01:47:31;48.22;;;11.73;;
48765;SDS011;65794;51.836;5.002;2024-02-04T01:49:58;37.15;;;10.38;;
48765;SDS011;65794;51.836;5.002;2024-02-04T01:52:25;44.05;;;10.90;;
48765;SDS011;65794;51.836;5.002;2024-02-04T01:54:52;49.75;;;11.00;;
48765;SDS011;65794;51.836;5.002;2024-02-04T01:57:19;42.58;;;11.65;;
48765;SDS011;65794;51.836;5.002;2024-02-04T01:59:46;38.28;;;11.25;;
48765;SDS011;65794;51.836;5.002;2024-02-04T02:02:14;43.17;;;11.90;;
48765;SDS011;65794;51.836;5.002;2024-02-04T02:04:40;41.58;;;10.65;;
48765;SDS011;65794;51.836;5.002;2024-02-04T02:07:07;31.88;;;9.25;;
48765;SDS011;65794;51.836;5.002;2024-02-04T02:09:34;39.13;;;11.52;;
48765;SDS011;65794;51.836;5.002;2024-02-04T02:14:30;47.55;;;12.50;;
48765;SDS011;65794;51.836;5.002;2024-02-04T02:17:00;38.45;;;11.10;;
48765;SDS011;65794;51.836;5.002;2024-02-04T02:22:04;41.75;;;11.10;;
48765;SDS011;65794;51.836;5.002;2024-02-04T02:24:34;35.00;;;10.07;;
48765;SDS011;65794;51.836;5.002;2024-02-04T02:27:01;38.38;;;9.40;;
48765;SDS011;65794;51.836;5.002;2024-02-04T02:29:28;45.72;;;10.40;;
48765;SDS011;65794;51.836;5.002;2024-02-04T02:31:54;31.13;;;9.50;;
48765;SDS011;65794;51.836;5.002;2024-02-04T02:34:21;38.88;;;11.23;;
48765;SDS011;65794;51.836;5.002;2024-02-04T02:37:05;38.83;;;9.60;;
48765;SDS011;65794;51.836;5.002;2024-02-04T02:39:37;36.78;;;9.73;;
48765;SDS011;65794;51.836;5.002;2024-02-04T02:42:06;31.48;;;9.75;;
48765;SDS011;65794;51.836;5.002;2024-02-04T02:44:33;39.22;;;10.95;;
48765;SDS011;65794;51.836;5.002;2024-02-04T02:47:01;35.25;;;9.27;;
48765;SDS011;65794;51.836;5.002;2024-02-04T02:49:29;42.53;;;10.30;;
48765;SDS011;65794;51.836;5.002;2024-02-04T02:51:56;30.98;;;9.73;;
48765;SDS011;65794;51.836;5.002;2024-02-04T02:54:22;33.17;;;10.40;;
48765;SDS011;65794;51.836;5.002;2024-02-04T02:56:49;39.38;;;11.60;;
48765;SDS011;65794;51.836;5.002;2024-02-04T02:59:16;36.20;;;10.63;;
48765;SDS011;65794;51.836;5.002;2024-02-04T03:01:43;37.47;;;10.63;;
48765;SDS011;65794;51.836;5.002;2024-02-04T03:04:10;36.72;;;11.30;;
48765;SDS011;65794;51.836;5.002;2024-02-04T03:06:37;40.83;;;11.38;;
48765;SDS011;65794;51.836;5.002;2024-02-04T03:09:04;42.60;;;11.27;;
48765;SDS011;65794;51.836;5.002;2024-02-04T03:11:30;40.10;;;11.32;;
48765;SDS011;65794;51.836;5.002;2024-02-04T03:13:57;41.78;;;11.05;;
48765;SDS011;65794;51.836;5.002;2024-02-04T03:19:10;35.28;;;10.48;;
48765;SDS011;65794;51.836;5.002;2024-02-04T03:21:37;32.50;;;10.45;;
48765;SDS011;65794;51.836;5.002;2024-02-04T03:24:04;34.78;;;9.68;;
48765;SDS011;65794;51.836;5.002;2024-02-04T03:26:31;34.50;;;9.38;;
48765;SDS011;65794;51.836;5.002;2024-02-04T03:28:58;34.42;;;9.55;;
48765;SDS011;65794;51.836;5.002;2024-02-04T03:31:25;30.88;;;9.38;;
48765;SDS011;65794;51.836;5.002;2024-02-04T03:33:52;41.17;;;9.13;;
48765;SDS011;65794;51.836;5.002;2024-02-04T03:36:20;26.80;;;8.07;;
48765;SDS011;65794;51.836;5.002;2024-02-04T03:38:48;43.97;;;9.10;;
48765;SDS011;65794;51.836;5.002;2024-02-04T03:41:15;42.97;;;9.00;;
48765;SDS011;65794;51.836;5.002;2024-02-04T03:43:42;25.00;;;6.88;;
48765;SDS011;65794;51.836;5.002;2024-02-04T03:46:12;29.65;;;8.52;;
48765;SDS011;65794;51.836;5.002;2024-02-04T03:48:39;38.08;;;8.98;;
48765;SDS011;65794;51.836;5.002;2024-02-04T03:51:06;38.17;;;8.15;;
48765;SDS011;65794;51.836;5.002;2024-02-04T03:53:33;37.05;;;8.80;;
48765;SDS011;65794;51.836;5.002;2024-02-04T03:56:00;32.58;;;7.82;;
48765;SDS011;65794;51.836;5.002;2024-02-04T03:58:27;41.17;;;9.40;;
48765;SDS011;65794;51.836;5.002;2024-02-04T04:00:56;33.03;;;8.43;;
48765;SDS011;65794;51.836;5.002;2024-02-04T04:03:23;26.85;;;8.00;;
48765;SDS011;65794;51.836;5.002;2024-02-04T04:05:50;31.38;;;7.72;;
48765;SDS011;65794;51.836;5.002;2024-02-04T04:08:17;32.75;;;7.47;;
48765;SDS011;65794;51.836;5.002;2024-02-04T04:10:45;19.13;;;7.10;;
48765;SDS011;65794;51.836;5.002;2024-02-04T04:13:12;24.95;;;7.80;;
48765;SDS011;65794;51.836;5.002;2024-02-04T04:15:39;31.58;;;7.22;;
48765;SDS011;65794;51.836;5.002;2024-02-04T04:18:06;33.30;;;8.02;;
48765;SDS011;65794;51.836;5.002;2024-02-04T04:20:33;27.90;;;7.72;;
48765;SDS011;65794;51.836;5.002;2024-02-04T04:22:59;32.63;;;7.38;;
48765;SDS011;65794;51.836;5.002;2024-02-04T04:25:26;26.42;;;7.43;;
48765;SDS011;65794;51.836;5.002;2024-02-04T04:27:53;28.33;;;7.30;;
48765;SDS011;65794;51.836;5.002;2024-02-04T04:30:19;23.13;;;7.13;;
48765;SDS011;65794;51.836;5.002;2024-02-04T04:32:46;25.02;;;7.05;;
48765;SDS011;65794;51.836;5.002;2024-02-04T04:35:13;28.80;;;7.38;;
48765;SDS011;65794;51.836;5.002;2024-02-04T04:37:40;31.70;;;7.55;;
48765;SDS011;65794;51.836;5.002;2024-02-04T04:40:09;38.33;;;7.63;;
48765;SDS011;65794;51.836;5.002;2024-02-04T04:42:36;23.27;;;7.35;;
48765;SDS011;65794;51.836;5.002;2024-02-04T04:45:03;29.33;;;7.70;;
48765;SDS011;65794;51.836;5.002;2024-02-04T04:47:30;30.40;;;7.93;;
48765;SDS011;65794;51.836;5.002;2024-02-04T04:49:56;30.30;;;8.13;;
48765;SDS011;65794;51.836;5.002;2024-02-04T04:52:23;23.38;;;7.68;;
48765;SDS011;65794;51.836;5.002;2024-02-04T04:54:50;35.78;;;8.05;;
48765;SDS011;65794;51.836;5.002;2024-02-04T04:57:17;33.58;;;8.05;;
48765;SDS011;65794;51.836;5.002;2024-02-04T04:59:44;38.03;;;7.60;;
48765;SDS011;65794;51.836;5.002;2024-02-04T05:02:10;37.95;;;8.35;;
48765;SDS011;65794;51.836;5.002;2024-02-04T05:04:37;28.80;;;8.05;;
48765;SDS011;65794;51.836;5.002;2024-02-04T05:07:04;24.50;;;7.43;;
48765;SDS011;65794;51.836;5.002;2024-02-04T05:09:31;28.98;;;6.97;;
48765;SDS011;65794;51.836;5.002;2024-02-04T05:11:57;27.33;;;6.30;;
48765;SDS011;65794;51.836;5.002;2024-02-04T05:14:24;20.35;;;6.82;;
48765;SDS011;65794;51.836;5.002;2024-02-04T05:16:51;27.48;;;6.00;;
48765;SDS011;65794;51.836;5.002;2024-02-04T05:19:18;24.08;;;6.55;;
48765;SDS011;65794;51.836;5.002;2024-02-04T05:21:44;22.25;;;6.20;;
48765;SDS011;65794;51.836;5.002;2024-02-04T05:24:11;19.42;;;5.65;;
48765;SDS011;65794;51.836;5.002;2024-02-04T05:26:38;20.42;;;6.03;;
48765;SDS011;65794;51.836;5.002;2024-02-04T05:29:05;18.80;;;5.38;;
48765;SDS011;65794;51.836;5.002;2024-02-04T05:31:31;29.25;;;6.55;;
48765;SDS011;65794;51.836;5.002;2024-02-04T05:33:58;22.92;;;6.78;;
48765;SDS011;65794;51.836;5.002;2024-02-04T05:36:25;32.70;;;6.90;;
48765;SDS011;65794;51.836;5.002;2024-02-04T05:38:51;24.65;;;6.80;;
48765;SDS011;65794;51.836;5.002;2024-02-04T05:41:18;30.52;;;6.35;;
48765;SDS011;65794;51.836;5.002;2024-02-04T05:43:45;28.17;;;6.10;;
48765;SDS011;65794;51.836;5.002;2024-02-04T05:46:13;27.13;;;5.35;;
48765;SDS011;65794;51.836;5.002;2024-02-04T05:48:40;21.23;;;6.85;;
48765;SDS011;65794;51.836;5.002;2024-02-04T05:51:08;26.35;;;6.93;;
48765;SDS011;65794;51.836;5.002;2024-02-04T05:53:35;22.70;;;6.85;;
48765;SDS011;65794;51.836;5.002;2024-02-04T05:56:01;32.55;;;6.90;;
48765;SDS011;65794;51.836;5.002;2024-02-04T05:58:28;25.00;;;7.38;;
48765;SDS011;65794;51.836;5.002;2024-02-04T06:00:55;19.70;;;5.78;;
48765;SDS011;65794;51.836;5.002;2024-02-04T06:03:22;28.95;;;7.43;;
48765;SDS011;65794;51.836;5.002;2024-02-04T06:05:49;28.30;;;6.72;;
48765;SDS011;65794;51.836;5.002;2024-02-04T06:08:16;29.10;;;6.78;;
48765;SDS011;65794;51.836;5.002;2024-02-04T06:10:42;17.92;;;6.15;;
48765;SDS011;65794;51.836;5.002;2024-02-04T06:13:09;19.58;;;6.32;;
48765;SDS011;65794;51.836;5.002;2024-02-04T06:15:36;25.50;;;6.05;;
48765;SDS011;65794;51.836;5.002;2024-02-04T06:18:03;20.50;;;6.20;;
48765;SDS011;65794;51.836;5.002;2024-02-04T06:20:30;22.23;;;5.90;;
48765;SDS011;65794;51.836;5.002;2024-02-04T06:22:56;18.60;;;5.35;;
48765;SDS011;65794;51.836;5.002;2024-02-04T06:25:24;18.88;;;5.85;;
48765;SDS011;65794;51.836;5.002;2024-02-04T06:27:51;17.65;;;5.55;;
48765;SDS011;65794;51.836;5.002;2024-02-04T06:30:18;20.25;;;5.40;;
48765;SDS011;65794;51.836;5.002;2024-02-04T06:32:47;18.50;;;5.95;;
48765;SDS011;65794;51.836;5.002;2024-02-04T06:35:14;19.20;;;5.05;;
48765;SDS011;65794;51.836;5.002;2024-02-04T06:37:43;26.58;;;6.75;;
48765;SDS011;65794;51.836;5.002;2024-02-04T06:40:10;19.02;;;5.55;;
48765;SDS011;65794;51.836;5.002;2024-02-04T06:42:37;20.63;;;5.50;;
48765;SDS011;65794;51.836;5.002;2024-02-04T06:45:04;19.33;;;5.55;;
48765;SDS011;65794;51.836;5.002;2024-02-04T06:47:31;28.65;;;5.60;;
48765;SDS011;65794;51.836;5.002;2024-02-04T06:49:57;24.33;;;5.68;;
48765;SDS011;65794;51.836;5.002;2024-02-04T06:52:24;21.33;;;5.35;;
48765;SDS011;65794;51.836;5.002;2024-02-04T06:54:51;20.90;;;5.68;;
48765;SDS011;65794;51.836;5.002;2024-02-04T06:57:17;18.45;;;5.20;;
48765;SDS011;65794;51.836;5.002;2024-02-04T06:59:44;19.00;;;5.78;;
48765;SDS011;65794;51.836;5.002;2024-02-04T07:02:11;19.20;;;5.30;;
48765;SDS011;65794;51.836;5.002;2024-02-04T07:04:38;25.05;;;5.88;;
48765;SDS011;65794;51.836;5.002;2024-02-04T07:07:04;27.23;;;5.30;;
48765;SDS011;65794;51.836;5.002;2024-02-04T07:09:31;26.63;;;6.22;;
48765;SDS011;65794;51.836;5.002;2024-02-04T07:11:58;24.23;;;5.72;;
48765;SDS011;65794;51.836;5.002;2024-02-04T07:14:25;21.75;;;5.50;;
48765;SDS011;65794;51.836;5.002;2024-02-04T07:16:51;28.58;;;5.65;;
48765;SDS011;65794;51.836;5.002;2024-02-04T07:19:18;29.95;;;6.07;;
48765;SDS011;65794;51.836;5.002;2024-02-04T07:21:46;22.60;;;5.53;;
48765;SDS011;65794;51.836;5.002;2024-02-04T07:24:12;21.35;;;6.05;;
48765;SDS011;65794;51.836;5.002;2024-02-04T07:26:39;32.30;;;5.55;;
48765;SDS011;65794;51.836;5.002;2024-02-04T07:29:06;21.23;;;5.10;;
48765;SDS011;65794;51.836;5.002;2024-02-04T07:31:32;18.05;;;5.32;;
48765;SDS011;65794;51.836;5.002;2024-02-04T07:34:04;20.85;;;5.20;;
48765;SDS011;65794;51.836;5.002;2024-02-04T07:36:31;17.02;;;3.97;;
48765;SDS011;65794;51.836;5.002;2024-02-04T07:38:57;21.23;;;4.47;;
48765;SDS011;65794;51.836;5.002;2024-02-04T07:41:26;17.58;;;4.25;;
48765;SDS011;65794;51.836;5.002;2024-02-04T07:43:52;22.48;;;4.82;;
48765;SDS011;65794;51.836;5.002;2024-02-04T07:46:19;13.90;;;3.47;;
48765;SDS011;65794;51.836;5.002;2024-02-04T07:48:46;18.67;;;3.88;;
48765;SDS011;65794;51.836;5.002;2024-02-04T07:51:13;23.30;;;4.07;;
48765;SDS011;65794;51.836;5.002;2024-02-04T07:53:40;17.23;;;4.22;;
48765;SDS011;65794;51.836;5.002;2024-02-04T07:56:07;15.52;;;3.88;;
48765;SDS011;65794;51.836;5.002;2024-02-04T07:58:34;12.00;;;3.25;;
48765;SDS011;65794;51.836;5.002;2024-02-04T08:01:01;20.50;;;3.95;;
48765;SDS011;65794;51.836;5.002;2024-02-04T08:03:28;16.05;;;3.33;;
48765;SDS011;65794;51.836;5.002;2024-02-04T08:05:55;13.07;;;3.15;;
48765;SDS011;65794;51.836;5.002;2024-02-04T08:08:21;14.82;;;3.35;;
48765;SDS011;65794;51.836;5.002;2024-02-04T08:10:48;14.57;;;3.65;;
48765;SDS011;65794;51.836;5.002;2024-02-04T08:13:15;14.52;;;3.13;;
48765;SDS011;65794;51.836;5.002;2024-02-04T08:15:42;10.40;;;2.80;;
48765;SDS011;65794;51.836;5.002;2024-02-04T08:18:09;16.48;;;3.30;;
48765;SDS011;65794;51.836;5.002;2024-02-04T08:20:35;8.65;;;2.75;;
48765;SDS011;65794;51.836;5.002;2024-02-04T08:23:02;15.18;;;3.13;;
48765;SDS011;65794;51.836;5.002;2024-02-04T08:25:29;20.77;;;3.38;;
48765;SDS011;65794;51.836;5.002;2024-02-04T08:27:57;8.85;;;1.88;;
48765;SDS011;65794;51.836;5.002;2024-02-04T08:30:25;10.63;;;2.92;;
48765;SDS011;65794;51.836;5.002;2024-02-04T08:32:51;14.15;;;3.45;;
48765;SDS011;65794;51.836;5.002;2024-02-04T08:35:21;16.50;;;5.75;;
48765;SDS011;65794;51.836;5.002;2024-02-04T08:37:48;12.13;;;3.45;;
48765;SDS011;65794;51.836;5.002;2024-02-04T08:40:15;12.50;;;2.90;;
48765;SDS011;65794;51.836;5.002;2024-02-04T08:42:42;12.52;;;3.47;;
48765;SDS011;65794;51.836;5.002;2024-02-04T08:45:09;9.15;;;3.35;;
48765;SDS011;65794;51.836;5.002;2024-02-04T08:47:39;6.78;;;2.30;;
48765;SDS011;65794;51.836;5.002;2024-02-04T08:50:07;9.05;;;2.20;;
48765;SDS011;65794;51.836;5.002;2024-02-04T08:52:34;8.93;;;2.55;;
48765;SDS011;65794;51.836;5.002;2024-02-04T08:55:01;15.90;;;2.55;;
48765;SDS011;65794;51.836;5.002;2024-02-04T08:57:30;15.88;;;2.50;;
48765;SDS011;65794;51.836;5.002;2024-02-04T08:59:57;13.93;;;2.83;;
48765;SDS011;65794;51.836;5.002;2024-02-04T09:02:24;4.03;;;1.70;;
48765;SDS011;65794;51.836;5.002;2024-02-04T09:04:51;16.25;;;2.65;;
48765;SDS011;65794;51.836;5.002;2024-02-04T09:07:17;11.05;;;2.25;;
48765;SDS011;65794;51.836;5.002;2024-02-04T09:09:44;11.50;;;2.50;;
48765;SDS011;65794;51.836;5.002;2024-02-04T09:12:11;8.18;;;1.88;;
48765;SDS011;65794;51.836;5.002;2024-02-04T09:14:38;14.00;;;2.97;;
48765;SDS011;65794;51.836;5.002;2024-02-04T09:17:05;10.07;;;2.35;;
48765;SDS011;65794;51.836;5.002;2024-02-04T09:19:32;10.02;;;2.33;;
48765;SDS011;65794;51.836;5.002;2024-02-04T09:22:01;17.77;;;3.03;;
48765;SDS011;65794;51.836;5.002;2024-02-04T09:24:28;9.50;;;2.47;;
48765;SDS011;65794;51.836;5.002;2024-02-04T09:26:55;7.15;;;2.13;;
48765;SDS011;65794;51.836;5.002;2024-02-04T09:29:22;15.02;;;3.50;;
48765;SDS011;65794;51.836;5.002;2024-02-04T09:31:49;10.82;;;2.25;;
48765;SDS011;65794;51.836;5.002;2024-02-04T09:34:17;8.38;;;2.15;;
48765;SDS011;65794;51.836;5.002;2024-02-04T09:36:47;10.98;;;1.85;;
48765;SDS011;65794;51.836;5.002;2024-02-04T09:39:14;12.05;;;2.00;;
48765;SDS011;65794;51.836;5.002;2024-02-04T09:41:42;16.13;;;1.80;;
48765;SDS011;65794;51.836;5.002;2024-02-04T09:44:09;15.32;;;2.70;;
48765;SDS011;65794;51.836;5.002;2024-02-04T09:46:36;10.63;;;1.88;;
48765;SDS011;65794;51.836;5.002;2024-02-04T09:49:03;7.82;;;1.70;;
48765;SDS011;65794;51.836;5.002;2024-02-04T09:51:30;8.15;;;1.33;;
48765;SDS011;65794;51.836;5.002;2024-02-04T09:53:58;8.63;;;1.42;;
48765;SDS011;65794;51.836;5.002;2024-02-04T09:56:27;6.35;;;2.17;;
48765;SDS011;65794;51.836;5.002;2024-02-04T09:58:54;14.82;;;2.22;;
48765;SDS011;65794;51.836;5.002;2024-02-04T10:01:23;12.82;;;2.35;;
48765;SDS011;65794;51.836;5.002;2024-02-04T10:03:50;9.52;;;2.60;;
48765;SDS011;65794;51.836;5.002;2024-02-04T10:06:17;15.65;;;3.00;;
48765;SDS011;65794;51.836;5.002;2024-02-04T10:08:44;12.45;;;2.95;;
48765;SDS011;65794;51.836;5.002;2024-02-04T10:11:12;19.00;;;2.85;;
48765;SDS011;65794;51.836;5.002;2024-02-04T10:13:46;24.17;;;3.08;;
48765;SDS011;65794;51.836;5.002;2024-02-04T10:16:13;17.10;;;3.42;;
48765;SDS011;65794;51.836;5.002;2024-02-04T10:18:46;22.98;;;2.75;;
48765;SDS011;65794;51.836;5.002;2024-02-04T10:21:14;15.18;;;2.58;;
48765;SDS011;65794;51.836;5.002;2024-02-04T10:23:41;16.70;;;3.20;;
48765;SDS011;65794;51.836;5.002;2024-02-04T10:26:08;13.23;;;3.08;;
48765;SDS011;65794;51.836;5.002;2024-02-04T10:28:36;17.80;;;3.22;;
48765;SDS011;65794;51.836;5.002;2024-02-04T10:31:03;24.30;;;3.15;;
48765;SDS011;65794;51.836;5.002;2024-02-04T10:33:30;14.35;;;2.22;;
48765;SDS011;65794;51.836;5.002;2024-02-04T10:35:58;18.75;;;2.92;;
48765;SDS011;65794;51.836;5.002;2024-02-04T10:38:24;20.92;;;3.03;;
48765;SDS011;65794;51.836;5.002;2024-02-04T10:40:53;26.58;;;3.53;;
48765;SDS011;65794;51.836;5.002;2024-02-04T10:43:22;28.13;;;3.88;;
48765;SDS011;65794;51.836;5.002;2024-02-04T10:45:52;26.33;;;2.85;;
48765;SDS011;65794;51.836;5.002;2024-02-04T10:48:19;17.35;;;2.63;;
48765;SDS011;65794;51.836;5.002;2024-02-04T10:50:47;14.90;;;2.88;;
48765;SDS011;65794;51.836;5.002;2024-02-04T10:53:14;16.42;;;2.80;;
48765;SDS011;65794;51.836;5.002;2024-02-04T10:55:41;10.48;;;2.83;;
48765;SDS011;65794;51.836;5.002;2024-02-04T10:58:09;17.25;;;3.08;;
48765;SDS011;65794;51.836;5.002;2024-02-04T11:00:37;23.20;;;2.53;;
48765;SDS011;65794;51.836;5.002;2024-02-04T11:03:04;21.70;;;2.60;;
48765;SDS011;65794;51.836;5.002;2024-02-04T11:05:32;14.95;;;2.80;;
48765;SDS011;65794;51.836;5.002;2024-02-04T11:08:02;17.40;;;2.97;;
48765;SDS011;65794;51.836;5.002;2024-02-04T11:10:31;26.27;;;2.80;;
48765;SDS011;65794;51.836;5.002;2024-02-04T11:12:58;20.58;;;1.95;;
48765;SDS011;65794;51.836;5.002;2024-02-04T11:15:27;22.98;;;2.67;;
48765;SDS011;65794;51.836;5.002;2024-02-04T11:25:56;13.07;;;2.75;;
48765;SDS011;65794;51.836;5.002;2024-02-04T11:28:25;15.95;;;2.70;;
48765;SDS011;65794;51.836;5.002;2024-02-04T11:30:53;15.27;;;2.08;;
48765;SDS011;65794;51.836;5.002;2024-02-04T11:33:20;10.60;;;1.73;;
48765;SDS011;65794;51.836;5.002;2024-02-04T11:36:02;16.50;;;2.30;;
48765;SDS011;65794;51.836;5.002;2024-02-04T11:38:30;15.40;;;2.47;;
48765;SDS011;65794;51.836;5.002;2024-02-04T11:40:57;12.68;;;2.08;;
48765;SDS011;65794;51.836;5.002;2024-02-04T11:43:24;14.80;;;1.60;;
48765;SDS011;65794;51.836;5.002;2024-02-04T11:45:52;13.27;;;1.80;;
48765;SDS011;65794;51.836;5.002;2024-02-04T11:48:19;6.97;;;1.58;;
48765;SDS011;65794;51.836;5.002;2024-02-04T11:50:53;11.48;;;1.58;;
48765;SDS011;65794;51.836;5.002;2024-02-04T11:53:20;12.38;;;1.60;;
48765;SDS011;65794;51.836;5.002;2024-02-04T11:55:47;11.90;;;1.98;;
48765;SDS011;65794;51.836;5.002;2024-02-04T11:58:13;7.18;;;1.77;;
48765;SDS011;65794;51.836;5.002;2024-02-04T12:00:44;12.57;;;1.60;;
48765;SDS011;65794;51.836;5.002;2024-02-04T12:03:12;13.40;;;1.92;;
48765;SDS011;65794;51.836;5.002;2024-02-04T12:05:39;10.55;;;1.85;;
48765;SDS011;65794;51.836;5.002;2024-02-04T12:08:06;10.73;;;2.45;;
48765;SDS011;65794;51.836;5.002;2024-02-04T12:10:34;16.30;;;1.90;;
48765;SDS011;65794;51.836;5.002;2024-02-04T12:13:02;12.73;;;1.83;;
48765;SDS011;65794;51.836;5.002;2024-02-04T12:15:29;7.03;;;1.60;;
48765;SDS011;65794;51.836;5.002;2024-02-04T12:18:06;11.27;;;1.75;;
48765;SDS011;65794;51.836;5.002;2024-02-04T12:20:33;10.05;;;1.75;;
48765;SDS011;65794;51.836;5.002;2024-02-04T12:23:02;10.45;;;1.83;;
48765;SDS011;65794;51.836;5.002;2024-02-04T12:25:28;8.80;;;1.38;;
48765;SDS011;65794;51.836;5.002;2024-02-04T12:28:01;20.92;;;1.95;;
48765;SDS011;65794;51.836;5.002;2024-02-04T12:30:31;15.57;;;1.67;;
48765;SDS011;65794;51.836;5.002;2024-02-04T12:33:02;13.02;;;1.90;;
48765;SDS011;65794;51.836;5.002;2024-02-04T12:35:31;9.93;;;1.73;;
48765;SDS011;65794;51.836;5.002;2024-02-04T12:37:58;9.50;;;1.80;;
48765;SDS011;65794;51.836;5.002;2024-02-04T12:40:26;12.32;;;1.98;;
48765;SDS011;65794;51.836;5.002;2024-02-04T12:42:53;12.05;;;2.15;;
48765;SDS011;65794;51.836;5.002;2024-02-04T12:45:21;12.68;;;1.80;;
48765;SDS011;65794;51.836;5.002;2024-02-04T12:47:49;14.40;;;1.55;;
48765;SDS011;65794;51.836;5.002;2024-02-04T12:50:15;8.90;;;1.60;;
48765;SDS011;65794;51.836;5.002;2024-02-04T12:52:43;12.15;;;1.90;;
48765;SDS011;65794;51.836;5.002;2024-02-04T12:55:18;13.88;;;1.83;;
48765;SDS011;65794;51.836;5.002;2024-02-04T13:02:39;9.38;;;2.35;;
48765;SDS011;65794;51.836;5.002;2024-02-04T13:05:06;11.80;;;1.92;;
48765;SDS011;65794;51.836;5.002;2024-02-04T13:07:33;11.75;;;2.08;;
48765;SDS011;65794;51.836;5.002;2024-02-04T13:10:00;21.00;;;1.88;;
48765;SDS011;65794;51.836;5.002;2024-02-04T13:12:28;11.30;;;1.58;;
48765;SDS011;65794;51.836;5.002;2024-02-04T13:14:54;12.35;;;1.83;;
48765;SDS011;65794;51.836;5.002;2024-02-04T13:17:21;20.13;;;2.28;;
48765;SDS011;65794;51.836;5.002;2024-02-04T13:19:48;8.35;;;1.00;;
48765;SDS011;65794;51.836;5.002;2024-02-04T13:22:15;13.02;;;1.35;;
48765;SDS011;65794;51.836;5.002;2024-02-04T13:24:42;10.52;;;2.08;;
48765;SDS011;65794;51.836;5.002;2024-02-04T13:27:08;8.27;;;1.73;;
48765;SDS011;65794;51.836;5.002;2024-02-04T13:29:35;8.98;;;1.40;;
48765;SDS011;65794;51.836;5.002;2024-02-04T13:32:02;12.73;;;1.88;;
48765;SDS011;65794;51.836;5.002;2024-02-04T13:34:29;10.00;;;1.75;;
48765;SDS011;65794;51.836;5.002;2024-02-04T13:36:56;6.95;;;1.50;;
48765;SDS011;65794;51.836;5.002;2024-02-04T13:39:23;11.10;;;1.60;;
48765;SDS011;65794;51.836;5.002;2024-02-04T13:41:50;14.18;;;1.75;;
48765;SDS011;65794;51.836;5.002;2024-02-04T13:44:17;12.02;;;1.90;;
48765;SDS011;65794;51.836;5.002;2024-02-04T13:46:44;11.20;;;1.67;;
48765;SDS011;65794;51.836;5.002;2024-02-04T13:49:10;12.43;;;1.63;;
48765;SDS011;65794;51.836;5.002;2024-02-04T13:51:39;9.48;;;1.50;;
48765;SDS011;65794;51.836;5.002;2024-02-04T13:54:11;11.00;;;1.42;;
48765;SDS011;65794;51.836;5.002;2024-02-04T13:56:44;9.13;;;1.40;;
48765;SDS011;65794;51.836;5.002;2024-02-04T13:59:11;13.88;;;1.75;;
48765;SDS011;65794;51.836;5.002;2024-02-04T14:01:38;9.63;;;1.42;;
48765;SDS011;65794;51.836;5.002;2024-02-04T14:04:05;8.63;;;1.02;;
48765;SDS011;65794;51.836;5.002;2024-02-04T14:06:32;9.18;;;1.52;;
48765;SDS011;65794;51.836;5.002;2024-02-04T14:09:00;11.68;;;1.25;;
48765;SDS011;65794;51.836;5.002;2024-02-04T14:11:27;8.55;;;1.60;;
48765;SDS011;65794;51.836;5.002;2024-02-04T14:13:54;17.83;;;1.60;;
48765;SDS011;65794;51.836;5.002;2024-02-04T14:16:21;8.85;;;1.25;;
48765;SDS011;65794;51.836;5.002;2024-02-04T14:18:47;13.35;;;1.52;;
48765;SDS011;65794;51.836;5.002;2024-02-04T14:21:14;17.55;;;1.85;;
48765;SDS011;65794;51.836;5.002;2024-02-04T14:23:41;10.45;;;1.70;;
48765;SDS011;65794;51.836;5.002;2024-02-04T14:26:16;7.88;;;1.10;;
48765;SDS011;65794;51.836;5.002;2024-02-04T14:28:44;9.52;;;1.65;;
48765;SDS011;65794;51.836;5.002;2024-02-04T14:31:10;14.07;;;1.90;;
48765;SDS011;65794;51.836;5.002;2024-02-04T14:33:37;9.27;;;1.45;;
48765;SDS011;65794;51.836;5.002;2024-02-04T14:36:06;9.52;;;1.95;;
48765;SDS011;65794;51.836;5.002;2024-02-04T14:38:33;12.43;;;1.92;;
48765;SDS011;65794;51.836;5.002;2024-02-04T14:41:00;15.52;;;1.70;;
48765;SDS011;65794;51.836;5.002;2024-02-04T14:43:27;10.18;;;1.77;;
48765;SDS011;65794;51.836;5.002;2024-02-04T14:45:54;12.18;;;2.28;;
48765;SDS011;65794;51.836;5.002;2024-02-04T14:48:21;12.13;;;1.92;;
48765;SDS011;65794;51.836;5.002;2024-02-04T14:50:49;7.35;;;1.50;;
48765;SDS011;65794;51.836;5.002;2024-02-04T14:53:16;10.52;;;1.88;;
48765;SDS011;65794;51.836;5.002;2024-02-04T14:55:43;10.32;;;1.77;;